sensor_id;sensor_type;location;lat;lon;timestamp;temperature;humidity
21676;DHT22;10999;51.332;9.458;2022-11-11T00:01:03;7.10;99.90
21676;DHT22;10999;51.332;9.458;2022-11-11T00:03:30;7.10;99.90
21676;DHT22;10999;51.332;9.458;2022-11-11T00:06:05;7.00;99.90
21676;DHT22;10999;51.332;9.458;2022-11-11T00:08:32;7.00;99.90
21676;DHT22;10999;51.332;9.458;2022-11-11T00:11:01;7.00;99.90
21676;DHT22;10999;51.332;9.458;2022-11-11T00:13:29;7.00;99.90
21676;DHT22;10999;51.332;9.458;2022-11-11T00:15:56;7.00;99.90
21676;DHT22;10999;51.332;9.458;2022-11-11T00:18:22;7.00;99.90
21676;DHT22;10999;51.332;9.458;2022-11-11T00:21:12;7.00;99.90
21676;DHT22;10999;51.332;9.458;2022-11-11T00:23:57;7.00;99.90
21676;DHT22;10999;51.332;9.458;2022-11-11T00:26:43;7.00;99.90
21676;DHT22;10999;51.332;9.458;2022-11-11T00:29:10;7.00;99.90
21676;DHT22;10999;51.332;9.458;2022-11-11T00:31:36;7.00;99.90
21676;DHT22;10999;51.332;9.458;2022-11-11T00:34:23;6.90;99.90
21676;DHT22;10999;51.332;9.458;2022-11-11T00:36:50;6.90;99.90
21676;DHT22;10999;51.332;9.458;2022-11-11T00:39:16;6.90;99.90
21676;DHT22;10999;51.332;9.458;2022-11-11T00:41:43;6.90;99.90
21676;DHT22;10999;51.332;9.458;2022-11-11T00:44:10;6.90;99.90
21676;DHT22;10999;51.332;9.458;2022-11-11T00:46:37;6.90;99.90
21676;DHT22;10999;51.332;9.458;2022-11-11T00:49:22;6.90;99.90
21676;DHT22;10999;51.332;9.458;2022-11-11T00:52:07;6.90;99.90
21676;DHT22;10999;51.332;9.458;2022-11-11T00:54:34;6.90;99.90
21676;DHT22;10999;51.332;9.458;2022-11-11T00:57:01;7.00;99.90
21676;DHT22;10999;51.332;9.458;2022-11-11T00:59:27;7.00;99.90
21676;DHT22;10999;51.332;9.458;2022-11-11T01:01:54;7.00;99.90
21676;DHT22;10999;51.332;9.458;2022-11-11T01:04:21;7.00;99.90
21676;DHT22;10999;51.332;9.458;2022-11-11T01:06:48;7.00;99.90
21676;DHT22;10999;51.332;9.458;2022-11-11T01:09:15;7.00;99.90
21676;DHT22;10999;51.332;9.458;2022-11-11T01:11:42;6.90;99.90
21676;DHT22;10999;51.332;9.458;2022-11-11T01:14:08;7.00;99.90
21676;DHT22;10999;51.332;9.458;2022-11-11T01:16:35;6.90;99.90
21676;DHT22;10999;51.332;9.458;2022-11-11T01:19:02;7.00;99.90
21676;DHT22;10999;51.332;9.458;2022-11-11T01:21:29;6.90;99.90
21676;DHT22;10999;51.332;9.458;2022-11-11T01:23:56;6.90;99.90
21676;DHT22;10999;51.332;9.458;2022-11-11T01:26:25;6.90;99.90
21676;DHT22;10999;51.332;9.458;2022-11-11T01:28:57;6.90;99.90
21676;DHT22;10999;51.332;9.458;2022-11-11T01:31:25;6.90;99.90
21676;DHT22;10999;51.332;9.458;2022-11-11T01:33:52;6.90;99.90
21676;DHT22;10999;51.332;9.458;2022-11-11T01:36:24;6.90;99.90
21676;DHT22;10999;51.332;9.458;2022-11-11T01:38:53;6.80;99.90
21676;DHT22;10999;51.332;9.458;2022-11-11T01:41:23;6.80;99.90
21676;DHT22;10999;51.332;9.458;2022-11-11T01:44:02;6.80;99.90
21676;DHT22;10999;51.332;9.458;2022-11-11T01:46:51;6.80;99.90
21676;DHT22;10999;51.332;9.458;2022-11-11T01:49:31;6.80;99.90
21676;DHT22;10999;51.332;9.458;2022-11-11T01:52:20;6.70;99.90
21676;DHT22;10999;51.332;9.458;2022-11-11T01:55:02;6.80;99.90
21676;DHT22;10999;51.332;9.458;2022-11-11T01:57:53;6.80;99.90
21676;DHT22;10999;51.332;9.458;2022-11-11T02:00:22;6.70;99.90
21676;DHT22;10999;51.332;9.458;2022-11-11T02:03:04;6.70;99.90
21676;DHT22;10999;51.332;9.458;2022-11-11T02:05:32;6.70;99.90
21676;DHT22;10999;51.332;9.458;2022-11-11T02:08:25;6.80;99.90
21676;DHT22;10999;51.332;9.458;2022-11-11T02:11:10;6.70;99.90
21676;DHT22;10999;51.332;9.458;2022-11-11T02:13:37;6.70;99.90
21676;DHT22;10999;51.332;9.458;2022-11-11T02:16:24;6.80;99.90
21676;DHT22;10999;51.332;9.458;2022-11-11T02:18:51;6.80;99.90
21676;DHT22;10999;51.332;9.458;2022-11-11T02:21:32;6.80;99.90
21676;DHT22;10999;51.332;9.458;2022-11-11T02:24:10;6.80;99.90
21676;DHT22;10999;51.332;9.458;2022-11-11T02:26:38;6.80;99.90
21676;DHT22;10999;51.332;9.458;2022-11-11T02:29:12;6.80;99.90
21676;DHT22;10999;51.332;9.458;2022-11-11T02:31:40;6.80;99.90
21676;DHT22;10999;51.332;9.458;2022-11-11T02:34:06;6.80;99.90
21676;DHT22;10999;51.332;9.458;2022-11-11T02:36:33;6.80;99.90
21676;DHT22;10999;51.332;9.458;2022-11-11T02:39:00;6.70;99.90
21676;DHT22;10999;51.332;9.458;2022-11-11T02:41:27;6.70;99.90
21676;DHT22;10999;51.332;9.458;2022-11-11T02:44:12;6.70;99.90
21676;DHT22;10999;51.332;9.458;2022-11-11T02:46:39;6.70;99.90
21676;DHT22;10999;51.332;9.458;2022-11-11T02:49:06;6.60;99.90
21676;DHT22;10999;51.332;9.458;2022-11-11T02:51:32;6.60;99.90
21676;DHT22;10999;51.332;9.458;2022-11-11T02:53:59;6.60;99.90
21676;DHT22;10999;51.332;9.458;2022-11-11T02:56:26;6.70;99.90
21676;DHT22;10999;51.332;9.458;2022-11-11T02:59:12;6.70;99.90
21676;DHT22;10999;51.332;9.458;2022-11-11T03:01:39;6.60;99.90
21676;DHT22;10999;51.332;9.458;2022-11-11T03:04:06;6.70;99.90
21676;DHT22;10999;51.332;9.458;2022-11-11T03:06:32;6.70;99.90
21676;DHT22;10999;51.332;9.458;2022-11-11T03:09:02;6.60;99.90
21676;DHT22;10999;51.332;9.458;2022-11-11T03:11:29;6.70;99.90
21676;DHT22;10999;51.332;9.458;2022-11-11T03:13:56;6.60;99.90
21676;DHT22;10999;51.332;9.458;2022-11-11T03:16:23;6.60;99.90
21676;DHT22;10999;51.332;9.458;2022-11-11T03:19:09;6.60;99.90
21676;DHT22;10999;51.332;9.458;2022-11-11T03:21:36;6.60;99.90
21676;DHT22;10999;51.332;9.458;2022-11-11T03:24:23;6.60;99.90
21676;DHT22;10999;51.332;9.458;2022-11-11T03:26:50;6.60;99.90
21676;DHT22;10999;51.332;9.458;2022-11-11T03:29:16;6.60;99.90
21676;DHT22;10999;51.332;9.458;2022-11-11T03:31:43;6.60;99.90
21676;DHT22;10999;51.332;9.458;2022-11-11T03:34:10;6.60;99.90
21676;DHT22;10999;51.332;9.458;2022-11-11T03:36:45;6.60;99.90
21676;DHT22;10999;51.332;9.458;2022-11-11T03:39:30;6.60;99.90
21676;DHT22;10999;51.332;9.458;2022-11-11T03:41:57;6.70;99.90
21676;DHT22;10999;51.332;9.458;2022-11-11T03:44:24;6.70;99.90
21676;DHT22;10999;51.332;9.458;2022-11-11T03:46:50;6.70;99.90
21676;DHT22;10999;51.332;9.458;2022-11-11T03:49:17;6.60;99.90
21676;DHT22;10999;51.332;9.458;2022-11-11T03:51:44;6.60;99.90
21676;DHT22;10999;51.332;9.458;2022-11-11T03:54:10;6.60;99.90
21676;DHT22;10999;51.332;9.458;2022-11-11T03:56:37;6.60;99.90
21676;DHT22;10999;51.332;9.458;2022-11-11T03:59:04;6.60;99.90
21676;DHT22;10999;51.332;9.458;2022-11-11T04:01:30;6.60;99.90
21676;DHT22;10999;51.332;9.458;2022-11-11T04:04:15;6.60;99.90
21676;DHT22;10999;51.332;9.458;2022-11-11T04:07:01;6.60;99.90
21676;DHT22;10999;51.332;9.458;2022-11-11T04:09:46;6.60;99.90
21676;DHT22;10999;51.332;9.458;2022-11-11T04:12:32;6.60;99.90
21676;DHT22;10999;51.332;9.458;2022-11-11T04:15:20;6.60;99.90
21676;DHT22;10999;51.332;9.458;2022-11-11T04:18:05;6.60;99.90
21676;DHT22;10999;51.332;9.458;2022-11-11T04:20:32;6.60;99.90
21676;DHT22;10999;51.332;9.458;2022-11-11T04:23:17;6.60;99.90
21676;DHT22;10999;51.332;9.458;2022-11-11T04:25:43;6.50;99.90
21676;DHT22;10999;51.332;9.458;2022-11-11T04:28:16;6.60;99.90
21676;DHT22;10999;51.332;9.458;2022-11-11T04:31:01;6.60;99.90
21676;DHT22;10999;51.332;9.458;2022-11-11T04:33:28;6.60;99.90
21676;DHT22;10999;51.332;9.458;2022-11-11T04:35:54;6.60;99.90
21676;DHT22;10999;51.332;9.458;2022-11-11T04:38:21;6.60;99.90
21676;DHT22;10999;51.332;9.458;2022-11-11T04:41:06;6.60;99.90
21676;DHT22;10999;51.332;9.458;2022-11-11T04:43:34;6.60;99.90
21676;DHT22;10999;51.332;9.458;2022-11-11T04:46:21;6.60;99.90
21676;DHT22;10999;51.332;9.458;2022-11-11T04:48:47;6.60;99.90
21676;DHT22;10999;51.332;9.458;2022-11-11T04:51:14;6.60;99.90
21676;DHT22;10999;51.332;9.458;2022-11-11T04:53:40;6.60;99.90
21676;DHT22;10999;51.332;9.458;2022-11-11T04:56:07;6.70;99.90
21676;DHT22;10999;51.332;9.458;2022-11-11T04:58:53;6.70;99.90
21676;DHT22;10999;51.332;9.458;2022-11-11T05:01:39;6.70;99.90
21676;DHT22;10999;51.332;9.458;2022-11-11T05:04:25;6.70;99.90
21676;DHT22;10999;51.332;9.458;2022-11-11T05:06:51;6.70;99.90
21676;DHT22;10999;51.332;9.458;2022-11-11T05:09:37;6.60;99.90
21676;DHT22;10999;51.332;9.458;2022-11-11T05:12:03;6.70;99.90
21676;DHT22;10999;51.332;9.458;2022-11-11T05:14:30;6.60;99.90
21676;DHT22;10999;51.332;9.458;2022-11-11T05:17:15;6.60;99.90
21676;DHT22;10999;51.332;9.458;2022-11-11T05:20:00;6.60;99.90
21676;DHT22;10999;51.332;9.458;2022-11-11T05:22:45;6.50;99.90
21676;DHT22;10999;51.332;9.458;2022-11-11T05:25:12;6.50;99.90
21676;DHT22;10999;51.332;9.458;2022-11-11T05:27:55;6.50;99.90
21676;DHT22;10999;51.332;9.458;2022-11-11T05:30:23;6.50;99.90
21676;DHT22;10999;51.332;9.458;2022-11-11T05:32:50;6.50;99.90
21676;DHT22;10999;51.332;9.458;2022-11-11T05:35:17;6.50;99.90
21676;DHT22;10999;51.332;9.458;2022-11-11T05:37:44;6.50;99.90
21676;DHT22;10999;51.332;9.458;2022-11-11T05:40:31;6.60;99.90
21676;DHT22;10999;51.332;9.458;2022-11-11T05:42:58;6.60;99.90
21676;DHT22;10999;51.332;9.458;2022-11-11T05:45:24;6.60;99.90
21676;DHT22;10999;51.332;9.458;2022-11-11T05:47:51;6.50;99.90
21676;DHT22;10999;51.332;9.458;2022-11-11T05:50:17;6.60;99.90
21676;DHT22;10999;51.332;9.458;2022-11-11T05:52:48;6.60;99.90
21676;DHT22;10999;51.332;9.458;2022-11-11T05:55:15;6.60;99.90
21676;DHT22;10999;51.332;9.458;2022-11-11T05:57:42;6.60;99.90
21676;DHT22;10999;51.332;9.458;2022-11-11T06:00:09;6.60;99.90
21676;DHT22;10999;51.332;9.458;2022-11-11T06:02:36;6.60;99.90
21676;DHT22;10999;51.332;9.458;2022-11-11T06:05:03;6.60;99.90
21676;DHT22;10999;51.332;9.458;2022-11-11T06:07:30;6.60;99.90
21676;DHT22;10999;51.332;9.458;2022-11-11T06:09:57;6.60;99.90
21676;DHT22;10999;51.332;9.458;2022-11-11T06:12:43;6.60;99.90
21676;DHT22;10999;51.332;9.458;2022-11-11T06:15:42;6.70;99.90
21676;DHT22;10999;51.332;9.458;2022-11-11T06:18:09;6.70;99.90
21676;DHT22;10999;51.332;9.458;2022-11-11T06:20:36;6.70;99.90
21676;DHT22;10999;51.332;9.458;2022-11-11T06:23:04;6.70;99.90
21676;DHT22;10999;51.332;9.458;2022-11-11T06:25:32;6.70;99.90
21676;DHT22;10999;51.332;9.458;2022-11-11T06:28:18;6.70;99.90
21676;DHT22;10999;51.332;9.458;2022-11-11T06:30:45;6.70;99.90
21676;DHT22;10999;51.332;9.458;2022-11-11T06:33:17;6.60;99.90
21676;DHT22;10999;51.332;9.458;2022-11-11T06:35:43;6.70;99.90
21676;DHT22;10999;51.332;9.458;2022-11-11T06:38:10;6.70;99.90
21676;DHT22;10999;51.332;9.458;2022-11-11T06:40:37;6.70;99.90
21676;DHT22;10999;51.332;9.458;2022-11-11T06:43:04;6.70;99.90
21676;DHT22;10999;51.332;9.458;2022-11-11T06:45:31;6.70;99.90
21676;DHT22;10999;51.332;9.458;2022-11-11T06:47:59;6.70;99.90
21676;DHT22;10999;51.332;9.458;2022-11-11T06:50:25;6.70;99.90
21676;DHT22;10999;51.332;9.458;2022-11-11T06:52:52;6.70;99.90
21676;DHT22;10999;51.332;9.458;2022-11-11T06:55:18;6.70;99.90
21676;DHT22;10999;51.332;9.458;2022-11-11T06:57:45;6.80;99.90
21676;DHT22;10999;51.332;9.458;2022-11-11T07:00:13;6.80;99.90
21676;DHT22;10999;51.332;9.458;2022-11-11T07:02:40;6.80;99.90
21676;DHT22;10999;51.332;9.458;2022-11-11T07:05:06;6.70;99.90
21676;DHT22;10999;51.332;9.458;2022-11-11T07:07:33;6.80;99.90
21676;DHT22;10999;51.332;9.458;2022-11-11T07:10:00;6.80;99.90
21676;DHT22;10999;51.332;9.458;2022-11-11T07:12:27;6.70;99.90
21676;DHT22;10999;51.332;9.458;2022-11-11T07:14:54;6.70;99.90
21676;DHT22;10999;51.332;9.458;2022-11-11T07:17:21;6.70;99.90
21676;DHT22;10999;51.332;9.458;2022-11-11T07:19:47;6.70;99.90
21676;DHT22;10999;51.332;9.458;2022-11-11T07:22:14;6.70;99.90
21676;DHT22;10999;51.332;9.458;2022-11-11T07:24:41;6.80;99.90
21676;DHT22;10999;51.332;9.458;2022-11-11T07:27:08;6.70;99.90
21676;DHT22;10999;51.332;9.458;2022-11-11T07:29:34;6.80;99.90
21676;DHT22;10999;51.332;9.458;2022-11-11T07:32:01;6.80;99.90
21676;DHT22;10999;51.332;9.458;2022-11-11T07:34:28;6.80;99.90
21676;DHT22;10999;51.332;9.458;2022-11-11T07:36:54;6.80;99.90
21676;DHT22;10999;51.332;9.458;2022-11-11T07:39:21;6.80;99.90
21676;DHT22;10999;51.332;9.458;2022-11-11T07:41:48;6.80;99.90
21676;DHT22;10999;51.332;9.458;2022-11-11T07:44:15;6.80;99.90
21676;DHT22;10999;51.332;9.458;2022-11-11T07:46:41;6.90;99.90
21676;DHT22;10999;51.332;9.458;2022-11-11T07:49:08;6.90;99.90
21676;DHT22;10999;51.332;9.458;2022-11-11T07:51:35;6.90;99.90
21676;DHT22;10999;51.332;9.458;2022-11-11T07:54:02;6.90;99.90
21676;DHT22;10999;51.332;9.458;2022-11-11T07:56:28;7.00;99.90
21676;DHT22;10999;51.332;9.458;2022-11-11T07:58:55;7.00;99.90
21676;DHT22;10999;51.332;9.458;2022-11-11T08:01:22;7.00;99.90
21676;DHT22;10999;51.332;9.458;2022-11-11T08:03:49;7.00;99.90
21676;DHT22;10999;51.332;9.458;2022-11-11T08:06:17;7.00;99.90
21676;DHT22;10999;51.332;9.458;2022-11-11T08:08:44;7.10;99.90
21676;DHT22;10999;51.332;9.458;2022-11-11T08:11:12;7.10;99.90
21676;DHT22;10999;51.332;9.458;2022-11-11T08:13:39;7.20;99.90
21676;DHT22;10999;51.332;9.458;2022-11-11T08:16:06;7.20;99.90
21676;DHT22;10999;51.332;9.458;2022-11-11T08:18:33;7.20;99.90
21676;DHT22;10999;51.332;9.458;2022-11-11T08:21:01;7.30;99.90
21676;DHT22;10999;51.332;9.458;2022-11-11T08:23:32;7.30;99.90
21676;DHT22;10999;51.332;9.458;2022-11-11T08:26:20;7.50;99.90
21676;DHT22;10999;51.332;9.458;2022-11-11T08:28:55;7.50;99.50
21676;DHT22;10999;51.332;9.458;2022-11-11T08:31:21;7.60;99.30
21676;DHT22;10999;51.332;9.458;2022-11-11T08:33:48;7.70;99.30
21676;DHT22;10999;51.332;9.458;2022-11-11T08:36:16;7.70;98.50
21676;DHT22;10999;51.332;9.458;2022-11-11T08:38:46;7.80;98.50
21676;DHT22;10999;51.332;9.458;2022-11-11T08:41:13;7.90;98.00
21676;DHT22;10999;51.332;9.458;2022-11-11T08:43:40;7.90;97.30
21676;DHT22;10999;51.332;9.458;2022-11-11T08:46:07;7.90;96.80
21676;DHT22;10999;51.332;9.458;2022-11-11T08:48:33;7.90;95.80
21676;DHT22;10999;51.332;9.458;2022-11-11T08:51:00;8.00;95.60
21676;DHT22;10999;51.332;9.458;2022-11-11T08:53:27;8.00;95.50
21676;DHT22;10999;51.332;9.458;2022-11-11T08:55:54;8.10;95.00
21676;DHT22;10999;51.332;9.458;2022-11-11T08:58:20;8.20;95.00
21676;DHT22;10999;51.332;9.458;2022-11-11T09:00:47;8.20;94.10
21676;DHT22;10999;51.332;9.458;2022-11-11T09:03:14;8.30;94.00
21676;DHT22;10999;51.332;9.458;2022-11-11T09:05:41;8.30;93.80
21676;DHT22;10999;51.332;9.458;2022-11-11T09:08:08;8.40;93.80
21676;DHT22;10999;51.332;9.458;2022-11-11T09:10:35;8.50;93.20
21676;DHT22;10999;51.332;9.458;2022-11-11T09:13:03;8.60;91.90
21676;DHT22;10999;51.332;9.458;2022-11-11T09:15:30;8.80;91.40
21676;DHT22;10999;51.332;9.458;2022-11-11T09:17:57;8.90;89.20
21676;DHT22;10999;51.332;9.458;2022-11-11T09:20:24;9.20;88.50
21676;DHT22;10999;51.332;9.458;2022-11-11T09:22:51;9.40;87.70
21676;DHT22;10999;51.332;9.458;2022-11-11T09:25:19;9.70;87.70
21676;DHT22;10999;51.332;9.458;2022-11-11T09:27:57;9.90;83.80
21676;DHT22;10999;51.332;9.458;2022-11-11T09:30:25;9.90;82.40
21676;DHT22;10999;51.332;9.458;2022-11-11T09:32:53;10.00;82.80
21676;DHT22;10999;51.332;9.458;2022-11-11T09:35:20;10.00;82.40
21676;DHT22;10999;51.332;9.458;2022-11-11T09:37:58;9.80;82.10
21676;DHT22;10999;51.332;9.458;2022-11-11T09:40:34;9.60;83.00
21676;DHT22;10999;51.332;9.458;2022-11-11T09:43:23;9.60;83.60
21676;DHT22;10999;51.332;9.458;2022-11-11T09:48:49;9.50;85.80
21676;DHT22;10999;51.332;9.458;2022-11-11T09:51:23;9.50;85.50
21676;DHT22;10999;51.332;9.458;2022-11-11T09:53:56;9.50;85.90
21676;DHT22;10999;51.332;9.458;2022-11-11T09:56:26;9.50;85.10
21676;DHT22;10999;51.332;9.458;2022-11-11T09:59:04;9.60;85.60
21676;DHT22;10999;51.332;9.458;2022-11-11T10:01:45;9.80;85.50
21676;DHT22;10999;51.332;9.458;2022-11-11T10:07:01;10.00;84.90
21676;DHT22;10999;51.332;9.458;2022-11-11T10:09:37;10.00;82.60
21676;DHT22;10999;51.332;9.458;2022-11-11T10:14:37;10.10;81.40
21676;DHT22;10999;51.332;9.458;2022-11-11T10:17:34;10.10;81.10
21676;DHT22;10999;51.332;9.458;2022-11-11T10:20:19;10.10;81.30
21676;DHT22;10999;51.332;9.458;2022-11-11T10:22:52;10.30;82.40
21676;DHT22;10999;51.332;9.458;2022-11-11T10:25:25;10.30;81.20
21676;DHT22;10999;51.332;9.458;2022-11-11T10:27:55;10.30;80.80
21676;DHT22;10999;51.332;9.458;2022-11-11T10:30:27;10.30;81.00
21676;DHT22;10999;51.332;9.458;2022-11-11T10:33:03;10.20;80.30
21676;DHT22;10999;51.332;9.458;2022-11-11T10:35:31;10.20;80.40
21676;DHT22;10999;51.332;9.458;2022-11-11T10:38:05;10.30;81.30
21676;DHT22;10999;51.332;9.458;2022-11-11T10:40:40;10.30;80.40
21676;DHT22;10999;51.332;9.458;2022-11-11T10:43:23;10.30;79.90
21676;DHT22;10999;51.332;9.458;2022-11-11T10:49:28;10.50;79.30
21676;DHT22;10999;51.332;9.458;2022-11-11T10:51:34;10.60;80.30
21676;DHT22;10999;51.332;9.458;2022-11-11T10:54:06;10.80;78.00
21676;DHT22;10999;51.332;9.458;2022-11-11T10:56:39;10.80;76.80
21676;DHT22;10999;51.332;9.458;2022-11-11T11:01:53;10.80;76.40
21676;DHT22;10999;51.332;9.458;2022-11-11T11:04:30;10.80;77.50
21676;DHT22;10999;51.332;9.458;2022-11-11T11:06:59;10.80;77.80
21676;DHT22;10999;51.332;9.458;2022-11-11T11:09:39;11.00;77.40
21676;DHT22;10999;51.332;9.458;2022-11-11T11:12:12;11.00;76.40
21676;DHT22;10999;51.332;9.458;2022-11-11T11:14:44;11.10;77.20
21676;DHT22;10999;51.332;9.458;2022-11-11T11:17:16;11.10;76.80
21676;DHT22;10999;51.332;9.458;2022-11-11T11:19:46;11.20;74.90
21676;DHT22;10999;51.332;9.458;2022-11-11T11:22:51;11.10;74.80
21676;DHT22;10999;51.332;9.458;2022-11-11T11:25:19;11.30;75.20
21676;DHT22;10999;51.332;9.458;2022-11-11T11:27:49;11.30;75.20
21676;DHT22;10999;51.332;9.458;2022-11-11T11:30:22;11.30;74.50
21676;DHT22;10999;51.332;9.458;2022-11-11T11:33:04;11.40;75.40
21676;DHT22;10999;51.332;9.458;2022-11-11T11:35:39;11.60;74.60
21676;DHT22;10999;51.332;9.458;2022-11-11T11:38:08;11.70;73.40
21676;DHT22;10999;51.332;9.458;2022-11-11T11:40:51;11.60;72.40
21676;DHT22;10999;51.332;9.458;2022-11-11T11:43:45;11.60;73.30
21676;DHT22;10999;51.332;9.458;2022-11-11T11:46:34;11.70;72.40
21676;DHT22;10999;51.332;9.458;2022-11-11T12:00:28;12.30;70.50
21676;DHT22;10999;51.332;9.458;2022-11-11T12:03:07;12.40;69.30
21676;DHT22;10999;51.332;9.458;2022-11-11T12:05:47;12.50;69.30
21676;DHT22;10999;51.332;9.458;2022-11-11T12:08:37;12.60;67.90
21676;DHT22;10999;51.332;9.458;2022-11-11T12:11:23;12.60;67.20
21676;DHT22;10999;51.332;9.458;2022-11-11T12:14:32;12.80;68.00
21676;DHT22;10999;51.332;9.458;2022-11-11T12:17:25;12.70;67.90
21676;DHT22;10999;51.332;9.458;2022-11-11T12:20:02;12.80;67.80
21676;DHT22;10999;51.332;9.458;2022-11-11T12:25:22;12.70;66.90
21676;DHT22;10999;51.332;9.458;2022-11-11T12:27:56;12.70;67.50
21676;DHT22;10999;51.332;9.458;2022-11-11T12:30:25;12.60;68.10
21676;DHT22;10999;51.332;9.458;2022-11-11T12:36:00;12.70;68.90
21676;DHT22;10999;51.332;9.458;2022-11-11T12:41:33;12.80;67.70
21676;DHT22;10999;51.332;9.458;2022-11-11T12:44:10;12.90;67.90
21676;DHT22;10999;51.332;9.458;2022-11-11T12:47:04;12.90;67.60
21676;DHT22;10999;51.332;9.458;2022-11-11T12:55:50;13.10;66.80
21676;DHT22;10999;51.332;9.458;2022-11-11T12:58:37;13.20;65.90
21676;DHT22;10999;51.332;9.458;2022-11-11T13:06:32;13.20;65.40
21676;DHT22;10999;51.332;9.458;2022-11-11T13:17:40;13.30;64.00
21676;DHT22;10999;51.332;9.458;2022-11-11T13:23:01;13.40;63.70
21676;DHT22;10999;51.332;9.458;2022-11-11T13:25:31;13.40;63.70
21676;DHT22;10999;51.332;9.458;2022-11-11T13:28:07;13.40;62.30
21676;DHT22;10999;51.332;9.458;2022-11-11T13:30:43;13.40;62.00
21676;DHT22;10999;51.332;9.458;2022-11-11T13:35:51;13.40;61.20
21676;DHT22;10999;51.332;9.458;2022-11-11T13:38:31;13.40;61.60
21676;DHT22;10999;51.332;9.458;2022-11-11T13:41:03;13.40;59.30
21676;DHT22;10999;51.332;9.458;2022-11-11T13:43:34;13.40;58.70
21676;DHT22;10999;51.332;9.458;2022-11-11T13:46:04;13.40;60.50
21676;DHT22;10999;51.332;9.458;2022-11-11T13:48:37;13.40;60.00
21676;DHT22;10999;51.332;9.458;2022-11-11T13:53:58;13.40;59.40
21676;DHT22;10999;51.332;9.458;2022-11-11T13:56:40;13.40;59.40
21676;DHT22;10999;51.332;9.458;2022-11-11T13:59:22;13.40;59.10
21676;DHT22;10999;51.332;9.458;2022-11-11T14:02:24;13.40;59.60
21676;DHT22;10999;51.332;9.458;2022-11-11T14:15:50;13.30;60.10
21676;DHT22;10999;51.332;9.458;2022-11-11T14:20:53;13.20;59.40
21676;DHT22;10999;51.332;9.458;2022-11-11T14:23:34;13.10;59.90
21676;DHT22;10999;51.332;9.458;2022-11-11T14:26:22;13.10;60.70
21676;DHT22;10999;51.332;9.458;2022-11-11T14:29:01;13.00;61.20
21676;DHT22;10999;51.332;9.458;2022-11-11T14:32:00;13.00;60.50
21676;DHT22;10999;51.332;9.458;2022-11-11T14:34:47;12.90;61.70
21676;DHT22;10999;51.332;9.458;2022-11-11T14:37:41;12.80;60.90
21676;DHT22;10999;51.332;9.458;2022-11-11T14:40:26;12.80;62.20
21676;DHT22;10999;51.332;9.458;2022-11-11T14:42:54;12.70;61.90
21676;DHT22;10999;51.332;9.458;2022-11-11T14:47:56;12.70;62.00
21676;DHT22;10999;51.332;9.458;2022-11-11T14:53:06;12.60;62.10
21676;DHT22;10999;51.332;9.458;2022-11-11T14:55:35;12.60;62.70
21676;DHT22;10999;51.332;9.458;2022-11-11T14:58:12;12.50;62.70
21676;DHT22;10999;51.332;9.458;2022-11-11T15:01:09;12.40;63.20
21676;DHT22;10999;51.332;9.458;2022-11-11T15:03:43;12.40;63.10
21676;DHT22;10999;51.332;9.458;2022-11-11T15:06:25;12.40;63.40
21676;DHT22;10999;51.332;9.458;2022-11-11T15:12:02;12.20;63.90
21676;DHT22;10999;51.332;9.458;2022-11-11T15:14:51;12.20;64.00
21676;DHT22;10999;51.332;9.458;2022-11-11T15:17:27;12.20;64.50
21676;DHT22;10999;51.332;9.458;2022-11-11T15:20:38;12.10;64.30
21676;DHT22;10999;51.332;9.458;2022-11-11T15:23:20;12.00;64.70
21676;DHT22;10999;51.332;9.458;2022-11-11T15:26:21;12.00;65.40
21676;DHT22;10999;51.332;9.458;2022-11-11T15:34:40;11.90;66.20
21676;DHT22;10999;51.332;9.458;2022-11-11T15:37:16;11.80;66.30
21676;DHT22;10999;51.332;9.458;2022-11-11T15:39:48;11.80;66.90
21676;DHT22;10999;51.332;9.458;2022-11-11T15:42:29;11.70;67.40
21676;DHT22;10999;51.332;9.458;2022-11-11T15:44:59;11.70;68.10
21676;DHT22;10999;51.332;9.458;2022-11-11T15:47:28;11.60;68.70
21676;DHT22;10999;51.332;9.458;2022-11-11T15:50:00;11.60;69.20
21676;DHT22;10999;51.332;9.458;2022-11-11T15:52:32;11.60;69.50
21676;DHT22;10999;51.332;9.458;2022-11-11T15:55:01;11.60;69.70
21676;DHT22;10999;51.332;9.458;2022-11-11T15:57:32;11.50;70.10
21676;DHT22;10999;51.332;9.458;2022-11-11T16:00:01;11.40;70.70
21676;DHT22;10999;51.332;9.458;2022-11-11T16:02:34;11.40;71.80
21676;DHT22;10999;51.332;9.458;2022-11-11T16:05:13;11.30;72.60
21676;DHT22;10999;51.332;9.458;2022-11-11T16:07:44;11.30;73.30
21676;DHT22;10999;51.332;9.458;2022-11-11T16:12:46;11.10;74.10
21676;DHT22;10999;51.332;9.458;2022-11-11T16:15:37;11.00;74.90
21676;DHT22;10999;51.332;9.458;2022-11-11T16:18:11;11.00;75.40
21676;DHT22;10999;51.332;9.458;2022-11-11T16:20:45;10.90;76.50
21676;DHT22;10999;51.332;9.458;2022-11-11T16:23:16;10.80;77.10
21676;DHT22;10999;51.332;9.458;2022-11-11T16:25:45;10.80;77.50
21676;DHT22;10999;51.332;9.458;2022-11-11T16:28:19;10.80;77.70
21676;DHT22;10999;51.332;9.458;2022-11-11T16:30:46;10.80;78.10
21676;DHT22;10999;51.332;9.458;2022-11-11T16:33:32;10.70;78.30
21676;DHT22;10999;51.332;9.458;2022-11-11T16:36:07;10.60;78.30
21676;DHT22;10999;51.332;9.458;2022-11-11T16:38:34;10.60;78.80
21676;DHT22;10999;51.332;9.458;2022-11-11T16:41:20;10.60;79.00
21676;DHT22;10999;51.332;9.458;2022-11-11T16:43:48;10.50;78.90
21676;DHT22;10999;51.332;9.458;2022-11-11T16:51:53;10.30;80.30
21676;DHT22;10999;51.332;9.458;2022-11-11T16:54:26;10.20;80.50
21676;DHT22;10999;51.332;9.458;2022-11-11T16:56:56;10.20;81.00
21676;DHT22;10999;51.332;9.458;2022-11-11T16:59:46;10.30;81.00
21676;DHT22;10999;51.332;9.458;2022-11-11T17:02:20;10.30;80.90
21676;DHT22;10999;51.332;9.458;2022-11-11T17:04:55;10.20;80.90
21676;DHT22;10999;51.332;9.458;2022-11-11T17:07:33;10.20;81.20
21676;DHT22;10999;51.332;9.458;2022-11-11T17:12:35;10.00;81.00
21676;DHT22;10999;51.332;9.458;2022-11-11T17:15:06;9.90;81.60
21676;DHT22;10999;51.332;9.458;2022-11-11T17:17:35;9.70;82.40
21676;DHT22;10999;51.332;9.458;2022-11-11T17:20:10;9.60;82.60
21676;DHT22;10999;51.332;9.458;2022-11-11T17:22:45;9.50;83.20
21676;DHT22;10999;51.332;9.458;2022-11-11T17:25:13;9.50;83.90
21676;DHT22;10999;51.332;9.458;2022-11-11T17:27:39;9.40;84.30
21676;DHT22;10999;51.332;9.458;2022-11-11T17:30:08;9.40;85.60
21676;DHT22;10999;51.332;9.458;2022-11-11T17:32:35;9.30;85.30
21676;DHT22;10999;51.332;9.458;2022-11-11T17:35:02;9.20;85.30
21676;DHT22;10999;51.332;9.458;2022-11-11T17:37:36;9.10;85.60
21676;DHT22;10999;51.332;9.458;2022-11-11T17:40:05;9.10;86.80
21676;DHT22;10999;51.332;9.458;2022-11-11T17:42:32;9.00;86.90
21676;DHT22;10999;51.332;9.458;2022-11-11T17:44:59;9.00;87.70
21676;DHT22;10999;51.332;9.458;2022-11-11T17:47:26;9.00;88.00
21676;DHT22;10999;51.332;9.458;2022-11-11T17:49:53;8.90;88.60
21676;DHT22;10999;51.332;9.458;2022-11-11T17:52:23;8.90;89.40
21676;DHT22;10999;51.332;9.458;2022-11-11T17:54:50;8.80;89.10
21676;DHT22;10999;51.332;9.458;2022-11-11T17:57:17;8.90;90.70